Aviation Digital Data Service (ADDS)

Output produced by METARs form (1633 UTC 16 June 2019)
found at http://www.aviationweather.gov/metar/data/
 
METAR text: UHSS 161600Z 35011G16MPS 9999 -SHRA FEW006 BKN030CB 05/04 Q0998 R01/290060 NOSIG RMK MT OBSC QFE747/0996
Conditions at: UHSS (JUZNO-SAHALINSK , RU) observed 1600 UTC 16 June 2019
Temperature: 5.0°C (41°F)
Dewpoint: 4.0°C (39°F) [RH = 93%]
Pressure (altimeter): 29.47 inches Hg (998.0 mb)
Winds: from the N (350 degrees) at 24 MPH (21 knots; 10.8 m/s)
gusting to 36 MPH (31 knots; 15.9 m/s)
Visibility: 6 or more miles (10+ km)
Ceiling: 3000 feet AGL
Clouds: few clouds at 600 feet AGL
broken clouds at 3000 feet AGL
Weather: -SHRA  (light rain showers)

METAR text: UHSS 161500Z 35012G17MPS 9999 -SHRA SCT008 BKN022CB 05/04 Q0999 R01/290060 NOSIG RMK MT OBSC QFE748/0998
Conditions at: UHSS (JUZNO-SAHALINSK , RU) observed 1500 UTC 16 June 2019
Temperature: 5.0°C (41°F)
Dewpoint: 4.0°C (39°F) [RH = 93%]
Pressure (altimeter): 29.50 inches Hg (999.0 mb)
Winds: from the N (350 degrees) at 26 MPH (23 knots; 11.8 m/s)
gusting to 38 MPH (33 knots; 17.0 m/s)
Visibility: 6 or more miles (10+ km)
Ceiling: 2200 feet AGL
Clouds: scattered clouds at 800 feet AGL
broken clouds at 2200 feet AGL
Weather: -SHRA  (light rain showers)

METAR text: UHSS 161400Z 35010G15MPS 9000 -SHRA BKN006 OVC022CB 05/04 Q1000 R01/290060 NOSIG RMK MT OBSC QFE748/0998
Conditions at: UHSS (JUZNO-SAHALINSK , RU) observed 1400 UTC 16 June 2019
Temperature: 5.0°C (41°F)
Dewpoint: 4.0°C (39°F) [RH = 93%]
Pressure (altimeter): 29.53 inches Hg (1000.0 mb)
Winds: from the N (350 degrees) at 22 MPH (19 knots; 9.8 m/s)
gusting to 33 MPH (29 knots; 14.9 m/s)
Visibility: 6 miles ( 9 km)
Ceiling: 600 feet AGL
Clouds: broken clouds at 600 feet AGL
overcast cloud deck at 2200 feet AGL
Weather: -SHRA  (light rain showers)

METAR text: UHSS 161300Z 36009G14MPS 9999 -SHRA BKN005 OVC020CB 05/04 Q1000 R01/290060 NOSIG RMK MT OBSC QFE749/0999
Conditions at: UHSS (JUZNO-SAHALINSK , RU) observed 1300 UTC 16 June 2019
Temperature: 5.0°C (41°F)
Dewpoint: 4.0°C (39°F) [RH = 93%]
Pressure (altimeter): 29.53 inches Hg (1000.0 mb)
Winds: from the N (360 degrees) at 20 MPH (17 knots; 8.7 m/s)
gusting to 31 MPH (27 knots; 13.9 m/s)
Visibility: 6 or more miles (10+ km)
Ceiling: 500 feet AGL
Clouds: broken clouds at 500 feet AGL
overcast cloud deck at 2000 feet AGL
Weather: -SHRA  (light rain showers)

METAR text: UHSS 161200Z 36008MPS 9999 -SHRA BKN006 BKN020CB 05/04 Q1001 R01/290060 NOSIG RMK MT OBSC QFE749/0999
Conditions at: UHSS (JUZNO-SAHALINSK , RU) observed 1200 UTC 16 June 2019
Temperature: 5.0°C (41°F)
Dewpoint: 4.0°C (39°F) [RH = 93%]
Pressure (altimeter): 29.56 inches Hg (1001.0 mb)
Winds: from the N (360 degrees) at 18 MPH (16 knots; 8.2 m/s)
Visibility: 6 or more miles (10+ km)
Ceiling: 600 feet AGL
Clouds: broken clouds at 600 feet AGL
broken clouds at 2000 feet AGL
Weather: -SHRA  (light rain showers)

METAR text: UHSS 161130Z 36008G13MPS 9999 -SHRA SCT006 BKN020CB 05/04 Q1002 R01/290060 NOSIG RMK MT OBSC QFE750/1000
Conditions at: UHSS (JUZNO-SAHALINSK , RU) observed 1130 UTC 16 June 2019
Temperature: 5.0°C (41°F)
Dewpoint: 4.0°C (39°F) [RH = 93%]
Pressure (altimeter): 29.59 inches Hg (1002.0 mb)
Winds: from the N (360 degrees) at 18 MPH (16 knots; 8.2 m/s)
gusting to 29 MPH (25 knots; 12.9 m/s)
Visibility: 6 or more miles (10+ km)
Ceiling: 2000 feet AGL
Clouds: scattered clouds at 600 feet AGL
broken clouds at 2000 feet AGL
Weather: -SHRA  (light rain showers)

METAR text: UHSS 161100Z 36009MPS 9999 -SHRA SCT007 BKN020CB 06/05 Q1002 R01/290060 NOSIG RMK MT OBSC QFE750/1001
Conditions at: UHSS (JUZNO-SAHALINSK , RU) observed 1100 UTC 16 June 2019
Temperature: 6.0°C (43°F)
Dewpoint: 5.0°C (41°F) [RH = 93%]
Pressure (altimeter): 29.59 inches Hg (1002.0 mb)
Winds: from the N (360 degrees) at 20 MPH (17 knots; 8.7 m/s)
Visibility: 6 or more miles (10+ km)
Ceiling: 2000 feet AGL
Clouds: scattered clouds at 700 feet AGL
broken clouds at 2000 feet AGL
Weather: -SHRA  (light rain showers)

METAR text: UHSS 161030Z 34009MPS 9999 -SHRA BKN017CB 06/05 Q1003 R01/290060 NOSIG RMK MT OBSC QFE751/1001
Conditions at: UHSS (JUZNO-SAHALINSK , RU) observed 1030 UTC 16 June 2019
Temperature: 6.0°C (43°F)
Dewpoint: 5.0°C (41°F) [RH = 93%]
Pressure (altimeter): 29.62 inches Hg (1003.0 mb)
Winds: from the NNW (340 degrees) at 20 MPH (17 knots; 8.7 m/s)
Visibility: 6 or more miles (10+ km)
Ceiling: 1700 feet AGL
Clouds: broken clouds at 1700 feet AGL
Weather: -SHRA  (light rain showers)

METAR text: UHSS 161000Z 35008MPS 9999 -SHRA FEW010 BKN020CB 06/05 Q1003 R01/290060 NOSIG RMK MT OBSC QFE751/1001
Conditions at: UHSS (JUZNO-SAHALINSK , RU) observed 1000 UTC 16 June 2019
Temperature: 6.0°C (43°F)
Dewpoint: 5.0°C (41°F) [RH = 93%]
Pressure (altimeter): 29.62 inches Hg (1003.0 mb)
Winds: from the N (350 degrees) at 18 MPH (16 knots; 8.2 m/s)
Visibility: 6 or more miles (10+ km)
Ceiling: 2000 feet AGL
Clouds: few clouds at 1000 feet AGL
broken clouds at 2000 feet AGL
Weather: -SHRA  (light rain showers)

METAR text: UHSS 160930Z 36009MPS 9999 -SHRA BKN017CB 06/05 Q1003 R01/290060 NOSIG RMK MT OBSC QFE751/1002
Conditions at: UHSS (JUZNO-SAHALINSK , RU) observed 0930 UTC 16 June 2019
Temperature: 6.0°C (43°F)
Dewpoint: 5.0°C (41°F) [RH = 93%]
Pressure (altimeter): 29.62 inches Hg (1003.0 mb)
Winds: from the N (360 degrees) at 20 MPH (17 knots; 8.7 m/s)
Visibility: 6 or more miles (10+ km)
Ceiling: 1700 feet AGL
Clouds: broken clouds at 1700 feet AGL
Weather: -SHRA  (light rain showers)

METAR text: UHSS 160900Z 36008G13MPS 9999 -SHRA FEW006 BKN022CB 06/05 Q1004 R01/290060 NOSIG RMK MT OBSC QFE752/1002
Conditions at: UHSS (JUZNO-SAHALINSK , RU) observed 0900 UTC 16 June 2019
Temperature: 6.0°C (43°F)
Dewpoint: 5.0°C (41°F) [RH = 93%]
Pressure (altimeter): 29.65 inches Hg (1004.0 mb)
Winds: from the N (360 degrees) at 18 MPH (16 knots; 8.2 m/s)
gusting to 29 MPH (25 knots; 12.9 m/s)
Visibility: 6 or more miles (10+ km)
Ceiling: 2200 feet AGL
Clouds: few clouds at 600 feet AGL
broken clouds at 2200 feet AGL
Weather: -SHRA  (light rain showers)

METAR text: UHSS 160830Z 36008G13MPS 9999 -SHRA SCT008 BKN023CB 06/05 Q1004 R01/290060 NOSIG RMK MT OBSC QFE752/1003
Conditions at: UHSS (JUZNO-SAHALINSK , RU) observed 0830 UTC 16 June 2019
Temperature: 6.0°C (43°F)
Dewpoint: 5.0°C (41°F) [RH = 93%]
Pressure (altimeter): 29.65 inches Hg (1004.0 mb)
Winds: from the N (360 degrees) at 18 MPH (16 knots; 8.2 m/s)
gusting to 29 MPH (25 knots; 12.9 m/s)
Visibility: 6 or more miles (10+ km)
Ceiling: 2300 feet AGL
Clouds: scattered clouds at 800 feet AGL
broken clouds at 2300 feet AGL
Weather: -SHRA  (light rain showers)

METAR text: UHSS 160800Z 36010G15MPS 9999 -SHRA SCT008 BKN022CB 06/05 Q1005 R01/290060 NOSIG RMK MT OBSC QFE752/1003
Conditions at: UHSS (JUZNO-SAHALINSK , RU) observed 0800 UTC 16 June 2019
Temperature: 6.0°C (43°F)
Dewpoint: 5.0°C (41°F) [RH = 93%]
Pressure (altimeter): 29.68 inches Hg (1005.0 mb)
Winds: from the N (360 degrees) at 22 MPH (19 knots; 9.8 m/s)
gusting to 33 MPH (29 knots; 14.9 m/s)
Visibility: 6 or more miles (10+ km)
Ceiling: 2200 feet AGL
Clouds: scattered clouds at 800 feet AGL
broken clouds at 2200 feet AGL
Weather: -SHRA  (light rain showers)

METAR text: UHSS 160730Z 36010G15MPS 9999 -SHRA SCT008 BKN022CB 06/05 Q1005 R01/290060 NOSIG RMK MT OBSC QFE752/1003
Conditions at: UHSS (JUZNO-SAHALINSK , RU) observed 0730 UTC 16 June 2019
Temperature: 6.0°C (43°F)
Dewpoint: 5.0°C (41°F) [RH = 93%]
Pressure (altimeter): 29.68 inches Hg (1005.0 mb)
Winds: from the N (360 degrees) at 22 MPH (19 knots; 9.8 m/s)
gusting to 33 MPH (29 knots; 14.9 m/s)
Visibility: 6 or more miles (10+ km)
Ceiling: 2200 feet AGL
Clouds: scattered clouds at 800 feet AGL
broken clouds at 2200 feet AGL
Weather: -SHRA  (light rain showers)

METAR text: UHSS 160700Z 36010G15MPS 9999 -SHRA SCT008 BKN023CB 06/05 Q1005 R01/290060 NOSIG RMK MT OBSC QFE752/1003
Conditions at: UHSS (JUZNO-SAHALINSK , RU) observed 0700 UTC 16 June 2019
Temperature: 6.0°C (43°F)
Dewpoint: 5.0°C (41°F) [RH = 93%]
Pressure (altimeter): 29.68 inches Hg (1005.0 mb)
Winds: from the N (360 degrees) at 22 MPH (19 knots; 9.8 m/s)
gusting to 33 MPH (29 knots; 14.9 m/s)
Visibility: 6 or more miles (10+ km)
Ceiling: 2300 feet AGL
Clouds: scattered clouds at 800 feet AGL
broken clouds at 2300 feet AGL
Weather: -SHRA  (light rain showers)

METAR text: UHSS 160630Z 36010G15MPS 9999 -SHRA SCT008 BKN024CB 07/05 Q1005 R01/290060 NOSIG RMK MT OBSC QFE753/1004
Conditions at: UHSS (JUZNO-SAHALINSK , RU) observed 0630 UTC 16 June 2019
Temperature: 7.0°C (45°F)
Dewpoint: 5.0°C (41°F) [RH = 87%]
Pressure (altimeter): 29.68 inches Hg (1005.0 mb)
Winds: from the N (360 degrees) at 22 MPH (19 knots; 9.8 m/s)
gusting to 33 MPH (29 knots; 14.9 m/s)
Visibility: 6 or more miles (10+ km)
Ceiling: 2400 feet AGL
Clouds: scattered clouds at 800 feet AGL
broken clouds at 2400 feet AGL
Weather: -SHRA  (light rain showers)

METAR text: UHSS 160600Z 36010G15MPS 9999 -SHRA SCT008 BKN021CB 07/06 Q1006 R01/290060 NOSIG RMK MT OBSC QFE753/1004
Conditions at: UHSS (JUZNO-SAHALINSK , RU) observed 0600 UTC 16 June 2019
Temperature: 7.0°C (45°F)
Dewpoint: 6.0°C (43°F) [RH = 93%]
Pressure (altimeter): 29.70 inches Hg (1006.0 mb)
Winds: from the N (360 degrees) at 22 MPH (19 knots; 9.8 m/s)
gusting to 33 MPH (29 knots; 14.9 m/s)
Visibility: 6 or more miles (10+ km)
Ceiling: 2100 feet AGL
Clouds: scattered clouds at 800 feet AGL
broken clouds at 2100 feet AGL
Weather: -SHRA  (light rain showers)

METAR text: UHSS 160530Z 36010G15MPS 9999 -SHRA SCT008 BKN027CB 07/06 Q1006 R01/290060 NOSIG RMK MT OBSC QFE753/1004
Conditions at: UHSS (JUZNO-SAHALINSK , RU) observed 0530 UTC 16 June 2019
Temperature: 7.0°C (45°F)
Dewpoint: 6.0°C (43°F) [RH = 93%]
Pressure (altimeter): 29.70 inches Hg (1006.0 mb)
Winds: from the N (360 degrees) at 22 MPH (19 knots; 9.8 m/s)
gusting to 33 MPH (29 knots; 14.9 m/s)
Visibility: 6 or more miles (10+ km)
Ceiling: 2700 feet AGL
Clouds: scattered clouds at 800 feet AGL
broken clouds at 2700 feet AGL
Weather: -SHRA  (light rain showers)

METAR text: UHSS 160500Z 36010G15MPS 7000 -SHRA SCT008 BKN027CB 07/06 Q1006 R01/290060 NOSIG RMK MT OBSC QFE754/1005
Conditions at: UHSS (JUZNO-SAHALINSK , RU) observed 0500 UTC 16 June 2019
Temperature: 7.0°C (45°F)
Dewpoint: 6.0°C (43°F) [RH = 93%]
Pressure (altimeter): 29.70 inches Hg (1006.0 mb)
Winds: from the N (360 degrees) at 22 MPH (19 knots; 9.8 m/s)
gusting to 33 MPH (29 knots; 14.9 m/s)
Visibility: 4 miles ( 7 km)
Ceiling: 2700 feet AGL
Clouds: scattered clouds at 800 feet AGL
broken clouds at 2700 feet AGL
Weather: -SHRA  (light rain showers)

METAR text: UHSS 160430Z 36011G16MPS 9999 -SHRA SCT008 BKN026CB 07/06 Q1007 R01/70D NOSIG RMK MT OBSC QFE754/1005
Conditions at: UHSS (JUZNO-SAHALINSK , RU) observed 0430 UTC 16 June 2019
Temperature: 7.0°C (45°F)
Dewpoint: 6.0°C (43°F) [RH = 93%]
Pressure (altimeter): 29.73 inches Hg (1007.0 mb)
Winds: from the N (360 degrees) at 24 MPH (21 knots; 10.8 m/s)
gusting to 36 MPH (31 knots; 15.9 m/s)
Visibility: 6 or more miles (10+ km)
Ceiling: 2600 feet AGL
Clouds: scattered clouds at 800 feet AGL
broken clouds at 2600 feet AGL
Weather: -SHRA  (light rain showers)

METAR text: UHSS 160400Z 36011G16MPS 9999 -SHRA SCT008 BKN026CB 08/06 Q1007 R01/70D NOSIG RMK MT OBSC QFE754/1005
Conditions at: UHSS (JUZNO-SAHALINSK , RU) observed 0400 UTC 16 June 2019
Temperature: 8.0°C (46°F)
Dewpoint: 6.0°C (43°F) [RH = 87%]
Pressure (altimeter): 29.73 inches Hg (1007.0 mb)
Winds: from the N (360 degrees) at 24 MPH (21 knots; 10.8 m/s)
gusting to 36 MPH (31 knots; 15.9 m/s)
Visibility: 6 or more miles (10+ km)
Ceiling: 2600 feet AGL
Clouds: scattered clouds at 800 feet AGL
broken clouds at 2600 feet AGL
Weather: -SHRA  (light rain showers)

METAR text: UHSS 160330Z 36011G16MPS 9999 -SHRA SCT008 BKN025CB 08/06 Q1007 R01/70D NOSIG RMK MT OBSC QFE754/1005
Conditions at: UHSS (JUZNO-SAHALINSK , RU) observed 0330 UTC 16 June 2019
Temperature: 8.0°C (46°F)
Dewpoint: 6.0°C (43°F) [RH = 87%]
Pressure (altimeter): 29.73 inches Hg (1007.0 mb)
Winds: from the N (360 degrees) at 24 MPH (21 knots; 10.8 m/s)
gusting to 36 MPH (31 knots; 15.9 m/s)
Visibility: 6 or more miles (10+ km)
Ceiling: 2500 feet AGL
Clouds: scattered clouds at 800 feet AGL
broken clouds at 2500 feet AGL
Weather: -SHRA  (light rain showers)

METAR text: UHSS 160300Z 36010G15MPS 9999 -SHRA SCT008 BKN022CB 08/06 Q1007 R01/70D NOSIG RMK MT OBSC QFE754/1006
Conditions at: UHSS (JUZNO-SAHALINSK , RU) observed 0300 UTC 16 June 2019
Temperature: 8.0°C (46°F)
Dewpoint: 6.0°C (43°F) [RH = 87%]
Pressure (altimeter): 29.73 inches Hg (1007.0 mb)
Winds: from the N (360 degrees) at 22 MPH (19 knots; 9.8 m/s)
gusting to 33 MPH (29 knots; 14.9 m/s)
Visibility: 6 or more miles (10+ km)
Ceiling: 2200 feet AGL
Clouds: scattered clouds at 800 feet AGL
broken clouds at 2200 feet AGL
Weather: -SHRA  (light rain showers)

METAR text: UHSS 160230Z 35010G15MPS 9999 SCT008 BKN018CB 08/06 Q1008 R01/70D NOSIG RMK MT OBSC QFE754/1006
Conditions at: UHSS (JUZNO-SAHALINSK , RU) observed 0230 UTC 16 June 2019
Temperature: 8.0°C (46°F)
Dewpoint: 6.0°C (43°F) [RH = 87%]
Pressure (altimeter): 29.76 inches Hg (1008.0 mb)
Winds: from the N (350 degrees) at 22 MPH (19 knots; 9.8 m/s)
gusting to 33 MPH (29 knots; 14.9 m/s)
Visibility: 6 or more miles (10+ km)
Ceiling: 1800 feet AGL
Clouds: scattered clouds at 800 feet AGL
broken clouds at 1800 feet AGL
Weather: no significant weather observed at this time

METAR text: UHSS 160200Z 36010G15MPS 9999 SCT008 BKN018CB 08/06 Q1008 R01/70D NOSIG RMK MT OBSC QFE755/1006
Conditions at: UHSS (JUZNO-SAHALINSK , RU) observed 0200 UTC 16 June 2019
Temperature: 8.0°C (46°F)
Dewpoint: 6.0°C (43°F) [RH = 87%]
Pressure (altimeter): 29.76 inches Hg (1008.0 mb)
Winds: from the N (360 degrees) at 22 MPH (19 knots; 9.8 m/s)
gusting to 33 MPH (29 knots; 14.9 m/s)
Visibility: 6 or more miles (10+ km)
Ceiling: 1800 feet AGL
Clouds: scattered clouds at 800 feet AGL
broken clouds at 1800 feet AGL
Weather: no significant weather observed at this time

METAR text: UHSS 160130Z 36010G15MPS 9999 SCT008 BKN017CB 09/06 Q1008 R01/70D NOSIG RMK MT OBSC QFE755/1007
Conditions at: UHSS (JUZNO-SAHALINSK , RU) observed 0130 UTC 16 June 2019
Temperature: 9.0°C (48°F)
Dewpoint: 6.0°C (43°F) [RH = 81%]
Pressure (altimeter): 29.76 inches Hg (1008.0 mb)
Winds: from the N (360 degrees) at 22 MPH (19 knots; 9.8 m/s)
gusting to 33 MPH (29 knots; 14.9 m/s)
Visibility: 6 or more miles (10+ km)
Ceiling: 1700 feet AGL
Clouds: scattered clouds at 800 feet AGL
broken clouds at 1700 feet AGL
Weather: no significant weather observed at this time

METAR text: UHSS 160100Z 36009G14MPS 9999 SCT008 BKN019CB 09/06 Q1008 R01/70D NOSIG RMK MT OBSC QFE755/1007
Conditions at: UHSS (JUZNO-SAHALINSK , RU) observed 0100 UTC 16 June 2019
Temperature: 9.0°C (48°F)
Dewpoint: 6.0°C (43°F) [RH = 81%]
Pressure (altimeter): 29.76 inches Hg (1008.0 mb)
Winds: from the N (360 degrees) at 20 MPH (17 knots; 8.7 m/s)
gusting to 31 MPH (27 knots; 13.9 m/s)
Visibility: 6 or more miles (10+ km)
Ceiling: 1900 feet AGL
Clouds: scattered clouds at 800 feet AGL
broken clouds at 1900 feet AGL
Weather: no significant weather observed at this time

METAR text: UHSS 160030Z 36008G13MPS 9999 SCT008 BKN021CB 09/07 Q1009 R01/70D NOSIG RMK MT OBSC QFE755/1007
Conditions at: UHSS (JUZNO-SAHALINSK , RU) observed 0030 UTC 16 June 2019
Temperature: 9.0°C (48°F)
Dewpoint: 7.0°C (45°F) [RH = 87%]
Pressure (altimeter): 29.79 inches Hg (1009.0 mb)
Winds: from the N (360 degrees) at 18 MPH (16 knots; 8.2 m/s)
gusting to 29 MPH (25 knots; 12.9 m/s)
Visibility: 6 or more miles (10+ km)
Ceiling: 2100 feet AGL
Clouds: scattered clouds at 800 feet AGL
broken clouds at 2100 feet AGL
Weather: no significant weather observed at this time

METAR text: UHSS 160000Z 34007G12MPS 9999 SCT008 BKN021CB 09/07 Q1009 R01/290060 NOSIG RMK MT OBSC QFE756/1008
Conditions at: UHSS (JUZNO-SAHALINSK , RU) observed 0000 UTC 16 June 2019
Temperature: 9.0°C (48°F)
Dewpoint: 7.0°C (45°F) [RH = 87%]
Pressure (altimeter): 29.79 inches Hg (1009.0 mb)
Winds: from the NNW (340 degrees) at 16 MPH (14 knots; 7.2 m/s)
gusting to 26 MPH (23 knots; 11.8 m/s)
Visibility: 6 or more miles (10+ km)
Ceiling: 2100 feet AGL
Clouds: scattered clouds at 800 feet AGL
broken clouds at 2100 feet AGL
Weather: no significant weather observed at this time

METAR text: UHSS 152330Z 35008G13MPS 9999 SCT009 BKN024CB 08/07 Q1009 R01/290060 NOSIG RMK MT OBSC QFE756/1008
Conditions at: UHSS (JUZNO-SAHALINSK , RU) observed 2330 UTC 15 June 2019
Temperature: 8.0°C (46°F)
Dewpoint: 7.0°C (45°F) [RH = 93%]
Pressure (altimeter): 29.79 inches Hg (1009.0 mb)
Winds: from the N (350 degrees) at 18 MPH (16 knots; 8.2 m/s)
gusting to 29 MPH (25 knots; 12.9 m/s)
Visibility: 6 or more miles (10+ km)
Ceiling: 2400 feet AGL
Clouds: scattered clouds at 900 feet AGL
broken clouds at 2400 feet AGL
Weather: no significant weather observed at this time

METAR text: UHSS 152300Z 36008G13MPS 9999 SCT009 BKN028CB 08/07 Q1010 R01/290060 NOSIG RMK MT OBSC QFE756/1008
Conditions at: UHSS (JUZNO-SAHALINSK , RU) observed 2300 UTC 15 June 2019
Temperature: 8.0°C (46°F)
Dewpoint: 7.0°C (45°F) [RH = 93%]
Pressure (altimeter): 29.82 inches Hg (1010.0 mb)
Winds: from the N (360 degrees) at 18 MPH (16 knots; 8.2 m/s)
gusting to 29 MPH (25 knots; 12.9 m/s)
Visibility: 6 or more miles (10+ km)
Ceiling: 2800 feet AGL
Clouds: scattered clouds at 900 feet AGL
broken clouds at 2800 feet AGL
Weather: no significant weather observed at this time

METAR text: UHSS 152230Z 36008G13MPS 9999 SCT009 BKN032CB 08/07 Q1009 R01/290060 NOSIG RMK MT OBSC QFE756/1008
Conditions at: UHSS (JUZNO-SAHALINSK , RU) observed 2230 UTC 15 June 2019
Temperature: 8.0°C (46°F)
Dewpoint: 7.0°C (45°F) [RH = 93%]
Pressure (altimeter): 29.79 inches Hg (1009.0 mb)
Winds: from the N (360 degrees) at 18 MPH (16 knots; 8.2 m/s)
gusting to 29 MPH (25 knots; 12.9 m/s)
Visibility: 6 or more miles (10+ km)
Ceiling: 3200 feet AGL
Clouds: scattered clouds at 900 feet AGL
broken clouds at 3200 feet AGL
Weather: no significant weather observed at this time

METAR text: UHSS 152200Z 36007G12MPS 9999 -SHRA BKN010 BKN034CB 08/06 Q1010 R01/290060 NOSIG RMK MT OBSC QFE756/1008
Conditions at: UHSS (JUZNO-SAHALINSK , RU) observed 2200 UTC 15 June 2019
Temperature: 8.0°C (46°F)
Dewpoint: 6.0°C (43°F) [RH = 87%]
Pressure (altimeter): 29.82 inches Hg (1010.0 mb)
Winds: from the N (360 degrees) at 16 MPH (14 knots; 7.2 m/s)
gusting to 26 MPH (23 knots; 11.8 m/s)
Visibility: 6 or more miles (10+ km)
Ceiling: 1000 feet AGL
Clouds: broken clouds at 1000 feet AGL
broken clouds at 3400 feet AGL
Weather: -SHRA  (light rain showers)

METAR text: UHSS 152130Z 36007G12MPS 9999 -SHRA BKN009 BKN034CB 08/07 Q1010 R01/290060 NOSIG RMK MT OBSC QFE756/1008
Conditions at: UHSS (JUZNO-SAHALINSK , RU) observed 2130 UTC 15 June 2019
Temperature: 8.0°C (46°F)
Dewpoint: 7.0°C (45°F) [RH = 93%]
Pressure (altimeter): 29.82 inches Hg (1010.0 mb)
Winds: from the N (360 degrees) at 16 MPH (14 knots; 7.2 m/s)
gusting to 26 MPH (23 knots; 11.8 m/s)
Visibility: 6 or more miles (10+ km)
Ceiling: 900 feet AGL
Clouds: broken clouds at 900 feet AGL
broken clouds at 3400 feet AGL
Weather: -SHRA  (light rain showers)

METAR text: UHSS 152100Z 36005G10MPS 9999 -SHRA BKN009 BKN033CB 08/07 Q1010 R01/290060 NOSIG RMK MT OBSC QFE756/1009
Conditions at: UHSS (JUZNO-SAHALINSK , RU) observed 2100 UTC 15 June 2019
Temperature: 8.0°C (46°F)
Dewpoint: 7.0°C (45°F) [RH = 93%]
Pressure (altimeter): 29.82 inches Hg (1010.0 mb)
Winds: from the N (360 degrees) at 12 MPH (10 knots; 5.1 m/s)
gusting to 22 MPH (19 knots; 9.8 m/s)
Visibility: 6 or more miles (10+ km)
Ceiling: 900 feet AGL
Clouds: broken clouds at 900 feet AGL
broken clouds at 3300 feet AGL
Weather: -SHRA  (light rain showers)

METAR text: UHSS 152030Z 36006G11MPS 9999 -SHRA BKN009 BKN031CB 08/07 Q1010 R01/290060 NOSIG RMK MT OBSC QFE756/1009
Conditions at: UHSS (JUZNO-SAHALINSK , RU) observed 2030 UTC 15 June 2019
Temperature: 8.0°C (46°F)
Dewpoint: 7.0°C (45°F) [RH = 93%]
Pressure (altimeter): 29.82 inches Hg (1010.0 mb)
Winds: from the N (360 degrees) at 14 MPH (12 knots; 6.2 m/s)
gusting to 24 MPH (21 knots; 10.8 m/s)
Visibility: 6 or more miles (10+ km)
Ceiling: 900 feet AGL
Clouds: broken clouds at 900 feet AGL
broken clouds at 3100 feet AGL
Weather: -SHRA  (light rain showers)

METAR text: UHSS 152000Z 36006G11MPS 9999 -SHRA BKN009 BKN031CB 08/07 Q1010 R01/290060 NOSIG RMK MT OBSC QFE756/1009
Conditions at: UHSS (JUZNO-SAHALINSK , RU) observed 2000 UTC 15 June 2019
Temperature: 8.0°C (46°F)
Dewpoint: 7.0°C (45°F) [RH = 93%]
Pressure (altimeter): 29.82 inches Hg (1010.0 mb)
Winds: from the N (360 degrees) at 14 MPH (12 knots; 6.2 m/s)
gusting to 24 MPH (21 knots; 10.8 m/s)
Visibility: 6 or more miles (10+ km)
Ceiling: 900 feet AGL
Clouds: broken clouds at 900 feet AGL
broken clouds at 3100 feet AGL
Weather: -SHRA  (light rain showers)

METAR text: UHSS 151930Z 36008G13MPS 9999 -SHRA BKN007 BKN033CB 08/07 Q1010 R19/70D NOSIG RMK MT OBSC QFE756/1008
Conditions at: UHSS (JUZNO-SAHALINSK , RU) observed 1930 UTC 15 June 2019
Temperature: 8.0°C (46°F)
Dewpoint: 7.0°C (45°F) [RH = 93%]
Pressure (altimeter): 29.82 inches Hg (1010.0 mb)
Winds: from the N (360 degrees) at 18 MPH (16 knots; 8.2 m/s)
gusting to 29 MPH (25 knots; 12.9 m/s)
Visibility: 6 or more miles (10+ km)
Ceiling: 700 feet AGL
Clouds: broken clouds at 700 feet AGL
broken clouds at 3300 feet AGL
Weather: -SHRA  (light rain showers)

METAR text: UHSS 151900Z 36007G12MPS 9999 -SHRA BKN033CB 09/07 Q1010 R19/70D NOSIG RMK MT OBSC QFE756/1008
Conditions at: UHSS (JUZNO-SAHALINSK , RU) observed 1900 UTC 15 June 2019
Temperature: 9.0°C (48°F)
Dewpoint: 7.0°C (45°F) [RH = 87%]
Pressure (altimeter): 29.82 inches Hg (1010.0 mb)
Winds: from the N (360 degrees) at 16 MPH (14 knots; 7.2 m/s)
gusting to 26 MPH (23 knots; 11.8 m/s)
Visibility: 6 or more miles (10+ km)
Ceiling: 3300 feet AGL
Clouds: broken clouds at 3300 feet AGL
Weather: -SHRA  (light rain showers)

METAR text: UHSS 151800Z 36006G11MPS 9999 BKN040CB 09/07 Q1011 R19/70D NOSIG RMK QFE756/1009
Conditions at: UHSS (JUZNO-SAHALINSK , RU) observed 1800 UTC 15 June 2019
Temperature: 9.0°C (48°F)
Dewpoint: 7.0°C (45°F) [RH = 87%]
Pressure (altimeter): 29.85 inches Hg (1011.0 mb)
Winds: from the N (360 degrees) at 14 MPH (12 knots; 6.2 m/s)
gusting to 24 MPH (21 knots; 10.8 m/s)
Visibility: 6 or more miles (10+ km)
Ceiling: 4000 feet AGL
Clouds: broken clouds at 4000 feet AGL
Weather: no significant weather observed at this time

METAR text: UHSS 151700Z 36006G11MPS 9999 BKN040CB 09/07 Q1011 R19/70D NOSIG RMK QFE756/1009
Conditions at: UHSS (JUZNO-SAHALINSK , RU) observed 1700 UTC 15 June 2019
Temperature: 9.0°C (48°F)
Dewpoint: 7.0°C (45°F) [RH = 87%]
Pressure (altimeter): 29.85 inches Hg (1011.0 mb)
Winds: from the N (360 degrees) at 14 MPH (12 knots; 6.2 m/s)
gusting to 24 MPH (21 knots; 10.8 m/s)
Visibility: 6 or more miles (10+ km)
Ceiling: 4000 feet AGL
Clouds: broken clouds at 4000 feet AGL
Weather: no significant weather observed at this time

METAR text: UHSS 151600Z 01005G10MPS 9999 BKN030CB 09/07 Q1011 R19/70D NOSIG RMK MT OBSC QFE757/1009
Conditions at: UHSS (JUZNO-SAHALINSK , RU) observed 1600 UTC 15 June 2019
Temperature: 9.0°C (48°F)
Dewpoint: 7.0°C (45°F) [RH = 87%]
Pressure (altimeter): 29.85 inches Hg (1011.0 mb)
Winds: from the N (10 degrees) at 12 MPH (10 knots; 5.1 m/s)
gusting to 22 MPH (19 knots; 9.8 m/s)
Visibility: 6 or more miles (10+ km)
Ceiling: 3000 feet AGL
Clouds: broken clouds at 3000 feet AGL
Weather: no significant weather observed at this time

METAR text: UHSS 151500Z 36008MPS 9999 BKN027CB 09/07 Q1011 R19/70D NOSIG RMK MT OBSC QFE757/1009
Conditions at: UHSS (JUZNO-SAHALINSK , RU) observed 1500 UTC 15 June 2019
Temperature: 9.0°C (48°F)
Dewpoint: 7.0°C (45°F) [RH = 87%]
Pressure (altimeter): 29.85 inches Hg (1011.0 mb)
Winds: from the N (360 degrees) at 18 MPH (16 knots; 8.2 m/s)
Visibility: 6 or more miles (10+ km)
Ceiling: 2700 feet AGL
Clouds: broken clouds at 2700 feet AGL
Weather: no significant weather observed at this time

METAR text: UHSS 151400Z 36006MPS 9999 BKN026CB 09/07 Q1012 R19/70D NOSIG RMK MT OBSC QFE757/1010
Conditions at: UHSS (JUZNO-SAHALINSK , RU) observed 1400 UTC 15 June 2019
Temperature: 9.0°C (48°F)
Dewpoint: 7.0°C (45°F) [RH = 87%]
Pressure (altimeter): 29.88 inches Hg (1012.0 mb)
Winds: from the N (360 degrees) at 14 MPH (12 knots; 6.2 m/s)
Visibility: 6 or more miles (10+ km)
Ceiling: 2600 feet AGL
Clouds: broken clouds at 2600 feet AGL
Weather: no significant weather observed at this time

METAR text: UHSS 151300Z 36006MPS 9999 BKN026CB 09/08 Q1012 R19/70D NOSIG RMK MT OBSC QFE758/1010
Conditions at: UHSS (JUZNO-SAHALINSK , RU) observed 1300 UTC 15 June 2019
Temperature: 9.0°C (48°F)
Dewpoint: 8.0°C (46°F) [RH = 93%]
Pressure (altimeter): 29.88 inches Hg (1012.0 mb)
Winds: from the N (360 degrees) at 14 MPH (12 knots; 6.2 m/s)
Visibility: 6 or more miles (10+ km)
Ceiling: 2600 feet AGL
Clouds: broken clouds at 2600 feet AGL
Weather: no significant weather observed at this time

METAR text: UHSS 151230Z 36006MPS 9999 BKN028CB 09/08 Q1012 R19/70D NOSIG RMK MT OBSC QFE758/1010
Conditions at: UHSS (JUZNO-SAHALINSK , RU) observed 1230 UTC 15 June 2019
Temperature: 9.0°C (48°F)
Dewpoint: 8.0°C (46°F) [RH = 93%]
Pressure (altimeter): 29.88 inches Hg (1012.0 mb)
Winds: from the N (360 degrees) at 14 MPH (12 knots; 6.2 m/s)
Visibility: 6 or more miles (10+ km)
Ceiling: 2800 feet AGL
Clouds: broken clouds at 2800 feet AGL
Weather: no significant weather observed at this time

METAR text: UHSS 151200Z 36005MPS 9999 BKN021CB 09/08 Q1012 R01/70D NOSIG RMK MT OBSC QFE758/1011
Conditions at: UHSS (JUZNO-SAHALINSK , RU) observed 1200 UTC 15 June 2019
Temperature: 9.0°C (48°F)
Dewpoint: 8.0°C (46°F) [RH = 93%]
Pressure (altimeter): 29.88 inches Hg (1012.0 mb)
Winds: from the N (360 degrees) at 12 MPH (10 knots; 5.1 m/s)
Visibility: 6 or more miles (10+ km)
Ceiling: 2100 feet AGL
Clouds: broken clouds at 2100 feet AGL
Weather: no significant weather observed at this time

METAR text: UHSS 151130Z 02003MPS 9999 BKN011CB 10/08 Q1013 R01/70D NOSIG RMK MT OBSC QFE758/1011
Conditions at: UHSS (JUZNO-SAHALINSK , RU) observed 1130 UTC 15 June 2019
Temperature: 10.0°C (50°F)
Dewpoint: 8.0°C (46°F) [RH = 87%]
Pressure (altimeter): 29.91 inches Hg (1013.0 mb)
Winds: from the NNE (20 degrees) at 7 MPH (6 knots; 3.1 m/s)
Visibility: 6 or more miles (10+ km)
Ceiling: 1100 feet AGL
Clouds: broken clouds at 1100 feet AGL
Weather: no significant weather observed at this time

METAR text: UHSS 151100Z 36006MPS 9999 BKN016CB 10/08 Q1012 R01/70D NOSIG RMK MT OBSC QFE758/1011
Conditions at: UHSS (JUZNO-SAHALINSK , RU) observed 1100 UTC 15 June 2019
Temperature: 10.0°C (50°F)
Dewpoint: 8.0°C (46°F) [RH = 87%]
Pressure (altimeter): 29.88 inches Hg (1012.0 mb)
Winds: from the N (360 degrees) at 14 MPH (12 knots; 6.2 m/s)
Visibility: 6 or more miles (10+ km)
Ceiling: 1600 feet AGL
Clouds: broken clouds at 1600 feet AGL
Weather: no significant weather observed at this time

METAR text: UHSS 151030Z 36005G10MPS 9999 BKN014CB 10/08 Q1012 R01/70D NOSIG RMK MT OBSC QFE758/1011
Conditions at: UHSS (JUZNO-SAHALINSK , RU) observed 1030 UTC 15 June 2019
Temperature: 10.0°C (50°F)
Dewpoint: 8.0°C (46°F) [RH = 87%]
Pressure (altimeter): 29.88 inches Hg (1012.0 mb)
Winds: from the N (360 degrees) at 12 MPH (10 knots; 5.1 m/s)
gusting to 22 MPH (19 knots; 9.8 m/s)
Visibility: 6 or more miles (10+ km)
Ceiling: 1400 feet AGL
Clouds: broken clouds at 1400 feet AGL
Weather: no significant weather observed at this time

METAR text: UHSS 151000Z 01006MPS 9999 BKN012CB 10/08 Q1012 R01/70D NOSIG RMK MT OBSC QFE758/1011
Conditions at: UHSS (JUZNO-SAHALINSK , RU) observed 1000 UTC 15 June 2019
Temperature: 10.0°C (50°F)
Dewpoint: 8.0°C (46°F) [RH = 87%]
Pressure (altimeter): 29.88 inches Hg (1012.0 mb)
Winds: from the N (10 degrees) at 14 MPH (12 knots; 6.2 m/s)
Visibility: 6 or more miles (10+ km)
Ceiling: 1200 feet AGL
Clouds: broken clouds at 1200 feet AGL
Weather: no significant weather observed at this time

METAR text: UHSS 150930Z 36007MPS 9999 BKN015CB 10/08 Q1012 R01/70D NOSIG RMK MT OBSC QFE758/1011
Conditions at: UHSS (JUZNO-SAHALINSK , RU) observed 0930 UTC 15 June 2019
Temperature: 10.0°C (50°F)
Dewpoint: 8.0°C (46°F) [RH = 87%]
Pressure (altimeter): 29.88 inches Hg (1012.0 mb)
Winds: from the N (360 degrees) at 16 MPH (14 knots; 7.2 m/s)
Visibility: 6 or more miles (10+ km)
Ceiling: 1500 feet AGL
Clouds: broken clouds at 1500 feet AGL
Weather: no significant weather observed at this time

METAR text: UHSS 150900Z 01006MPS 9999 BKN014CB 10/09 Q1012 R01/70D NOSIG RMK MT OBSC QFE758/1010
Conditions at: UHSS (JUZNO-SAHALINSK , RU) observed 0900 UTC 15 June 2019
Temperature: 10.0°C (50°F)
Dewpoint: 9.0°C (48°F) [RH = 93%]
Pressure (altimeter): 29.88 inches Hg (1012.0 mb)
Winds: from the N (10 degrees) at 14 MPH (12 knots; 6.2 m/s)
Visibility: 6 or more miles (10+ km)
Ceiling: 1400 feet AGL
Clouds: broken clouds at 1400 feet AGL
Weather: no significant weather observed at this time

METAR text: UHSS 150830Z 36007MPS 9999 BKN015CB 11/08 Q1011 R01/70D NOSIG RMK MT OBSC QFE757/1010
Conditions at: UHSS (JUZNO-SAHALINSK , RU) observed 0830 UTC 15 June 2019
Temperature: 11.0°C (52°F)
Dewpoint: 8.0°C (46°F) [RH = 82%]
Pressure (altimeter): 29.85 inches Hg (1011.0 mb)
Winds: from the N (360 degrees) at 16 MPH (14 knots; 7.2 m/s)
Visibility: 6 or more miles (10+ km)
Ceiling: 1500 feet AGL
Clouds: broken clouds at 1500 feet AGL
Weather: no significant weather observed at this time

METAR text: UHSS 150800Z 36007MPS 9999 BKN014CB 11/09 Q1011 R19/70D NOSIG RMK MT OBSC QFE757/1010
Conditions at: UHSS (JUZNO-SAHALINSK , RU) observed 0800 UTC 15 June 2019
Temperature: 11.0°C (52°F)
Dewpoint: 9.0°C (48°F) [RH = 87%]
Pressure (altimeter): 29.85 inches Hg (1011.0 mb)
Winds: from the N (360 degrees) at 16 MPH (14 knots; 7.2 m/s)
Visibility: 6 or more miles (10+ km)
Ceiling: 1400 feet AGL
Clouds: broken clouds at 1400 feet AGL
Weather: no significant weather observed at this time

METAR text: UHSS 150730Z 36006MPS 9999 BKN014CB 10/09 Q1011 R19/70D NOSIG RMK MT OBSC QFE757/1010
Conditions at: UHSS (JUZNO-SAHALINSK , RU) observed 0730 UTC 15 June 2019
Temperature: 10.0°C (50°F)
Dewpoint: 9.0°C (48°F) [RH = 93%]
Pressure (altimeter): 29.85 inches Hg (1011.0 mb)
Winds: from the N (360 degrees) at 14 MPH (12 knots; 6.2 m/s)
Visibility: 6 or more miles (10+ km)
Ceiling: 1400 feet AGL
Clouds: broken clouds at 1400 feet AGL
Weather: no significant weather observed at this time

METAR text: UHSS 150700Z 36007MPS 9999 BKN010CB 10/09 Q1012 R01/70D NOSIG RMK MT OBSC QFE757/1010
Conditions at: UHSS (JUZNO-SAHALINSK , RU) observed 0700 UTC 15 June 2019
Temperature: 10.0°C (50°F)
Dewpoint: 9.0°C (48°F) [RH = 93%]
Pressure (altimeter): 29.88 inches Hg (1012.0 mb)
Winds: from the N (360 degrees) at 16 MPH (14 knots; 7.2 m/s)
Visibility: 6 or more miles (10+ km)
Ceiling: 1000 feet AGL
Clouds: broken clouds at 1000 feet AGL
Weather: no significant weather observed at this time

METAR text: UHSS 150630Z 36005MPS 9999 BKN009CB 11/09 Q1012 R01/70D NOSIG RMK MT OBSC QFE757/1010
Conditions at: UHSS (JUZNO-SAHALINSK , RU) observed 0630 UTC 15 June 2019
Temperature: 11.0°C (52°F)
Dewpoint: 9.0°C (48°F) [RH = 87%]
Pressure (altimeter): 29.88 inches Hg (1012.0 mb)
Winds: from the N (360 degrees) at 12 MPH (10 knots; 5.1 m/s)
Visibility: 6 or more miles (10+ km)
Ceiling: 900 feet AGL
Clouds: broken clouds at 900 feet AGL
Weather: no significant weather observed at this time

METAR text: UHSS 150600Z 36005MPS 9999 BKN009CB 11/09 Q1011 R01/250065 NOSIG RMK MT OBSC QFE757/1010
Conditions at: UHSS (JUZNO-SAHALINSK , RU) observed 0600 UTC 15 June 2019
Temperature: 11.0°C (52°F)
Dewpoint: 9.0°C (48°F) [RH = 87%]
Pressure (altimeter): 29.85 inches Hg (1011.0 mb)
Winds: from the N (360 degrees) at 12 MPH (10 knots; 5.1 m/s)
Visibility: 6 or more miles (10+ km)
Ceiling: 900 feet AGL
Clouds: broken clouds at 900 feet AGL
Weather: no significant weather observed at this time

METAR text: UHSS 150530Z 36006MPS 9999 BKN010CB 10/09 Q1012 R01/250065 NOSIG RMK MT OBSC QFE757/1010
Conditions at: UHSS (JUZNO-SAHALINSK , RU) observed 0530 UTC 15 June 2019
Temperature: 10.0°C (50°F)
Dewpoint: 9.0°C (48°F) [RH = 93%]
Pressure (altimeter): 29.88 inches Hg (1012.0 mb)
Winds: from the N (360 degrees) at 14 MPH (12 knots; 6.2 m/s)
Visibility: 6 or more miles (10+ km)
Ceiling: 1000 feet AGL
Clouds: broken clouds at 1000 feet AGL
Weather: no significant weather observed at this time

METAR text: UHSS 150500Z 36006MPS 9999 BKN009CB 10/09 Q1012 R01/250065 NOSIG RMK MT OBSC QFE757/1010
Conditions at: UHSS (JUZNO-SAHALINSK , RU) observed 0500 UTC 15 June 2019
Temperature: 10.0°C (50°F)
Dewpoint: 9.0°C (48°F) [RH = 93%]
Pressure (altimeter): 29.88 inches Hg (1012.0 mb)
Winds: from the N (360 degrees) at 14 MPH (12 knots; 6.2 m/s)
Visibility: 6 or more miles (10+ km)
Ceiling: 900 feet AGL
Clouds: broken clouds at 900 feet AGL
Weather: no significant weather observed at this time

Forecast for: AMD
Text: TAF AMD UHSS 161625Z 1616/1721 35015G20MPS 9999 BKN007 BKN013CB OVC100
Forecast period: 1600 to 2200 UTC 16 June 2019
Forecast type: FROM: standard forecast or significant change
Winds: from the N (350 degrees) at 33 MPH (29 knots; 14.9 m/s)
gusting to 45 MPH (39 knots; 20.1 m/s)
Visibility: 6 or more miles 10+ km)
Ceiling: 700 feet AGL
Clouds: broken clouds at 700 feet AGL
broken clouds at 1300 feet AGL
overcast cloud deck at 10000 feet AGL
Weather: no significant weather forecast for this period
Text: TEMPO 1616/1703 -SHRA
Forecast period: 1600 UTC 16 June 2019 to 0300 UTC 17 June 2019
Forecast type: TEMPORARY: The following changes expected for less than half the time period
Visibility: missing
Ceiling: unknown
Clouds: missing
Weather: -SHRA  (light rain showers)
Text: BECMG 1622/1624 BKN013CB
Forecast period: 2200 UTC 16 June 2019 to 0500 UTC 17 June 2019
Forecast type: BECOMING: Conditions expected to become as follows by 0000 UTC 17 June 2019
Winds: from the N (350 degrees) at 33 MPH (29 knots; 14.9 m/s)
gusting to 45 MPH (39 knots; 20.1 m/s)
Visibility: 6 or more miles 10+ km)
Ceiling: 1300 feet AGL
Clouds: broken clouds at 1300 feet AGL
Weather: no significant weather forecast for this period
Text: BECMG 1705/1706 31006MPS
Forecast period: 0500 to 2100 UTC 17 June 2019
Forecast type: BECOMING: Conditions expected to become as follows by 0600 UTC 17 June 2019
Winds: from the NW (310 degrees) at 14 MPH (12 knots; 6.2 m/s)
Visibility: 6 or more miles 10+ km)
Ceiling: 1300 feet AGL
Clouds: broken clouds at 1300 feet AGL
Weather: no significant weather forecast for this period